sensor_id;sensor_type;location;lat;lon;timestamp;P1;durP1;ratioP1;P2;durP2;ratioP2
56830;SDS011;42713;42.676;23.352;2023-04-25T00:00:56;6.32;;;3.22;;
56830;SDS011;42713;42.676;23.352;2023-04-25T00:03:22;5.70;;;2.53;;
56830;SDS011;42713;42.676;23.352;2023-04-25T00:05:50;8.10;;;3.25;;
56830;SDS011;42713;42.676;23.352;2023-04-25T00:08:16;7.40;;;3.00;;
56830;SDS011;42713;42.676;23.352;2023-04-25T00:10:42;7.47;;;3.35;;
56830;SDS011;42713;42.676;23.352;2023-04-25T00:13:07;9.05;;;3.28;;
56830;SDS011;42713;42.676;23.352;2023-04-25T00:15:33;8.25;;;3.65;;
56830;SDS011;42713;42.676;23.352;2023-04-25T00:18:00;7.65;;;3.47;;
56830;SDS011;42713;42.676;23.352;2023-04-25T00:20:26;6.80;;;3.38;;
56830;SDS011;42713;42.676;23.352;2023-04-25T00:22:51;7.13;;;3.40;;
56830;SDS011;42713;42.676;23.352;2023-04-25T00:25:20;11.57;;;3.88;;
56830;SDS011;42713;42.676;23.352;2023-04-25T00:27:46;7.85;;;3.92;;
56830;SDS011;42713;42.676;23.352;2023-04-25T00:30:12;8.40;;;3.90;;
56830;SDS011;42713;42.676;23.352;2023-04-25T00:32:38;9.00;;;3.58;;
56830;SDS011;42713;42.676;23.352;2023-04-25T00:35:03;9.88;;;4.00;;
56830;SDS011;42713;42.676;23.352;2023-04-25T00:37:29;7.25;;;3.55;;
56830;SDS011;42713;42.676;23.352;2023-04-25T00:39:55;9.38;;;4.30;;
56830;SDS011;42713;42.676;23.352;2023-04-25T00:42:22;7.63;;;4.25;;
56830;SDS011;42713;42.676;23.352;2023-04-25T00:44:47;8.75;;;4.35;;
56830;SDS011;42713;42.676;23.352;2023-04-25T00:47:14;8.48;;;4.03;;
56830;SDS011;42713;42.676;23.352;2023-04-25T00:49:40;8.43;;;3.80;;
56830;SDS011;42713;42.676;23.352;2023-04-25T00:52:05;8.68;;;4.15;;
56830;SDS011;42713;42.676;23.352;2023-04-25T00:54:31;7.95;;;4.40;;
56830;SDS011;42713;42.676;23.352;2023-04-25T00:56:57;8.65;;;4.57;;
56830;SDS011;42713;42.676;23.352;2023-04-25T00:59:22;8.50;;;4.40;;
56830;SDS011;42713;42.676;23.352;2023-04-25T01:01:49;7.53;;;3.80;;
56830;SDS011;42713;42.676;23.352;2023-04-25T01:04:14;6.72;;;3.53;;
56830;SDS011;42713;42.676;23.352;2023-04-25T01:06:40;7.13;;;3.35;;
56830;SDS011;42713;42.676;23.352;2023-04-25T01:09:05;6.90;;;3.30;;
56830;SDS011;42713;42.676;23.352;2023-04-25T01:11:32;6.57;;;3.40;;
56830;SDS011;42713;42.676;23.352;2023-04-25T01:13:58;6.75;;;3.35;;
56830;SDS011;42713;42.676;23.352;2023-04-25T01:16:23;7.15;;;3.83;;
56830;SDS011;42713;42.676;23.352;2023-04-25T01:18:49;9.98;;;4.20;;
56830;SDS011;42713;42.676;23.352;2023-04-25T01:21:16;7.60;;;3.75;;
56830;SDS011;42713;42.676;23.352;2023-04-25T01:23:42;6.50;;;3.58;;
56830;SDS011;42713;42.676;23.352;2023-04-25T01:26:08;7.82;;;3.42;;
56830;SDS011;42713;42.676;23.352;2023-04-25T01:28:35;7.57;;;3.50;;
56830;SDS011;42713;42.676;23.352;2023-04-25T01:31:01;7.80;;;4.15;;
56830;SDS011;42713;42.676;23.352;2023-04-25T01:33:27;8.07;;;4.60;;
56830;SDS011;42713;42.676;23.352;2023-04-25T01:35:52;7.35;;;3.70;;
56830;SDS011;42713;42.676;23.352;2023-04-25T01:38:18;12.77;;;4.13;;
56830;SDS011;42713;42.676;23.352;2023-04-25T01:40:44;8.00;;;3.85;;
56830;SDS011;42713;42.676;23.352;2023-04-25T01:43:10;9.32;;;4.25;;
56830;SDS011;42713;42.676;23.352;2023-04-25T01:45:43;11.13;;;4.10;;
56830;SDS011;42713;42.676;23.352;2023-04-25T01:48:09;7.47;;;3.90;;
56830;SDS011;42713;42.676;23.352;2023-04-25T01:50:35;8.65;;;4.00;;
56830;SDS011;42713;42.676;23.352;2023-04-25T01:53:00;8.68;;;4.18;;
56830;SDS011;42713;42.676;23.352;2023-04-25T01:55:27;6.82;;;3.58;;
56830;SDS011;42713;42.676;23.352;2023-04-25T01:57:53;10.18;;;4.20;;
56830;SDS011;42713;42.676;23.352;2023-04-25T02:00:18;8.60;;;3.58;;
56830;SDS011;42713;42.676;23.352;2023-04-25T02:02:44;7.70;;;3.90;;
56830;SDS011;42713;42.676;23.352;2023-04-25T02:05:09;9.57;;;3.80;;
56830;SDS011;42713;42.676;23.352;2023-04-25T02:07:35;8.32;;;4.07;;
56830;SDS011;42713;42.676;23.352;2023-04-25T02:10:00;8.10;;;3.83;;
56830;SDS011;42713;42.676;23.352;2023-04-25T02:12:27;8.55;;;3.95;;
56830;SDS011;42713;42.676;23.352;2023-04-25T02:14:53;7.55;;;4.32;;
56830;SDS011;42713;42.676;23.352;2023-04-25T02:17:18;8.00;;;3.95;;
56830;SDS011;42713;42.676;23.352;2023-04-25T02:19:44;7.03;;;3.58;;
56830;SDS011;42713;42.676;23.352;2023-04-25T02:22:09;8.90;;;4.03;;
56830;SDS011;42713;42.676;23.352;2023-04-25T02:24:35;10.52;;;4.13;;
56830;SDS011;42713;42.676;23.352;2023-04-25T02:27:01;9.02;;;3.88;;
56830;SDS011;42713;42.676;23.352;2023-04-25T02:29:26;7.60;;;3.78;;
56830;SDS011;42713;42.676;23.352;2023-04-25T02:31:52;12.80;;;3.83;;
56830;SDS011;42713;42.676;23.352;2023-04-25T02:34:17;7.55;;;4.00;;
56830;SDS011;42713;42.676;23.352;2023-04-25T02:36:42;8.77;;;4.55;;
56830;SDS011;42713;42.676;23.352;2023-04-25T02:39:08;7.72;;;4.40;;
56830;SDS011;42713;42.676;23.352;2023-04-25T02:41:33;8.10;;;4.07;;
56830;SDS011;42713;42.676;23.352;2023-04-25T02:43:59;9.63;;;4.25;;
56830;SDS011;42713;42.676;23.352;2023-04-25T02:46:24;9.90;;;4.22;;
56830;SDS011;42713;42.676;23.352;2023-04-25T02:48:50;9.95;;;4.65;;
56830;SDS011;42713;42.676;23.352;2023-04-25T02:51:15;8.50;;;4.28;;
56830;SDS011;42713;42.676;23.352;2023-04-25T02:53:41;8.43;;;4.65;;
56830;SDS011;42713;42.676;23.352;2023-04-25T02:56:07;9.77;;;5.45;;
56830;SDS011;42713;42.676;23.352;2023-04-25T02:58:32;11.68;;;5.15;;
56830;SDS011;42713;42.676;23.352;2023-04-25T03:00:58;8.93;;;5.40;;
56830;SDS011;42713;42.676;23.352;2023-04-25T03:03:23;12.18;;;5.30;;
56830;SDS011;42713;42.676;23.352;2023-04-25T03:05:49;8.77;;;4.78;;
56830;SDS011;42713;42.676;23.352;2023-04-25T03:08:15;9.48;;;5.38;;
56830;SDS011;42713;42.676;23.352;2023-04-25T03:10:42;9.38;;;5.18;;
56830;SDS011;42713;42.676;23.352;2023-04-25T03:13:07;9.48;;;5.35;;
56830;SDS011;42713;42.676;23.352;2023-04-25T03:15:33;11.70;;;5.43;;
56830;SDS011;42713;42.676;23.352;2023-04-25T03:17:58;11.07;;;5.80;;
56830;SDS011;42713;42.676;23.352;2023-04-25T03:20:24;12.73;;;4.93;;
56830;SDS011;42713;42.676;23.352;2023-04-25T03:22:49;13.70;;;5.13;;
56830;SDS011;42713;42.676;23.352;2023-04-25T03:25:15;10.27;;;5.38;;
56830;SDS011;42713;42.676;23.352;2023-04-25T03:27:41;10.32;;;5.15;;
56830;SDS011;42713;42.676;23.352;2023-04-25T03:30:06;9.38;;;5.28;;
56830;SDS011;42713;42.676;23.352;2023-04-25T03:32:33;12.02;;;5.05;;
56830;SDS011;42713;42.676;23.352;2023-04-25T03:35:00;11.73;;;5.30;;
56830;SDS011;42713;42.676;23.352;2023-04-25T03:37:25;9.23;;;5.22;;
56830;SDS011;42713;42.676;23.352;2023-04-25T03:39:50;9.93;;;5.43;;
56830;SDS011;42713;42.676;23.352;2023-04-25T03:42:16;13.43;;;5.88;;
56830;SDS011;42713;42.676;23.352;2023-04-25T03:44:42;8.85;;;4.70;;
56830;SDS011;42713;42.676;23.352;2023-04-25T03:47:08;8.85;;;4.88;;
56830;SDS011;42713;42.676;23.352;2023-04-25T03:49:33;9.35;;;5.40;;
56830;SDS011;42713;42.676;23.352;2023-04-25T03:51:59;10.02;;;5.90;;
56830;SDS011;42713;42.676;23.352;2023-04-25T03:54:25;9.10;;;5.05;;
56830;SDS011;42713;42.676;23.352;2023-04-25T03:56:50;10.57;;;5.95;;
56830;SDS011;42713;42.676;23.352;2023-04-25T03:59:16;11.75;;;5.80;;
56830;SDS011;42713;42.676;23.352;2023-04-25T04:01:41;9.27;;;5.50;;
56830;SDS011;42713;42.676;23.352;2023-04-25T04:04:07;9.18;;;5.68;;
56830;SDS011;42713;42.676;23.352;2023-04-25T04:06:32;10.65;;;5.72;;
56830;SDS011;42713;42.676;23.352;2023-04-25T04:08:58;10.30;;;6.10;;
56830;SDS011;42713;42.676;23.352;2023-04-25T04:11:23;10.27;;;5.68;;
56830;SDS011;42713;42.676;23.352;2023-04-25T04:13:49;10.43;;;5.78;;
56830;SDS011;42713;42.676;23.352;2023-04-25T04:16:14;12.95;;;6.10;;
56830;SDS011;42713;42.676;23.352;2023-04-25T04:18:40;9.68;;;5.82;;
56830;SDS011;42713;42.676;23.352;2023-04-25T04:21:05;9.90;;;5.82;;
56830;SDS011;42713;42.676;23.352;2023-04-25T04:23:31;8.93;;;5.35;;
56830;SDS011;42713;42.676;23.352;2023-04-25T04:25:56;9.73;;;5.50;;
56830;SDS011;42713;42.676;23.352;2023-04-25T04:28:22;11.02;;;5.40;;
56830;SDS011;42713;42.676;23.352;2023-04-25T04:30:47;10.88;;;5.40;;
56830;SDS011;42713;42.676;23.352;2023-04-25T04:33:16;8.77;;;5.05;;
56830;SDS011;42713;42.676;23.352;2023-04-25T04:35:44;9.32;;;5.00;;
56830;SDS011;42713;42.676;23.352;2023-04-25T04:38:09;9.95;;;5.43;;
56830;SDS011;42713;42.676;23.352;2023-04-25T04:40:36;9.32;;;5.28;;
56830;SDS011;42713;42.676;23.352;2023-04-25T04:43:03;9.73;;;5.82;;
56830;SDS011;42713;42.676;23.352;2023-04-25T04:45:28;9.55;;;5.60;;
56830;SDS011;42713;42.676;23.352;2023-04-25T04:47:54;11.25;;;6.38;;
56830;SDS011;42713;42.676;23.352;2023-04-25T04:50:20;11.02;;;6.70;;
56830;SDS011;42713;42.676;23.352;2023-04-25T04:52:46;11.02;;;6.43;;
56830;SDS011;42713;42.676;23.352;2023-04-25T04:55:12;13.43;;;6.65;;
56830;SDS011;42713;42.676;23.352;2023-04-25T04:57:37;12.85;;;8.68;;
56830;SDS011;42713;42.676;23.352;2023-04-25T05:00:04;12.40;;;8.30;;
56830;SDS011;42713;42.676;23.352;2023-04-25T05:02:33;13.50;;;8.75;;
56830;SDS011;42713;42.676;23.352;2023-04-25T05:04:58;14.80;;;8.85;;
56830;SDS011;42713;42.676;23.352;2023-04-25T05:07:24;14.10;;;9.40;;
56830;SDS011;42713;42.676;23.352;2023-04-25T05:09:50;15.32;;;9.98;;
56830;SDS011;42713;42.676;23.352;2023-04-25T05:12:15;14.25;;;9.40;;
56830;SDS011;42713;42.676;23.352;2023-04-25T05:14:41;15.25;;;9.93;;
56830;SDS011;42713;42.676;23.352;2023-04-25T05:17:06;18.50;;;10.10;;
56830;SDS011;42713;42.676;23.352;2023-04-25T05:19:33;13.68;;;8.88;;
56830;SDS011;42713;42.676;23.352;2023-04-25T05:21:59;14.63;;;8.82;;
56830;SDS011;42713;42.676;23.352;2023-04-25T05:24:24;13.80;;;8.88;;
56830;SDS011;42713;42.676;23.352;2023-04-25T05:26:50;15.50;;;8.43;;
56830;SDS011;42713;42.676;23.352;2023-04-25T05:29:15;14.50;;;8.75;;
56830;SDS011;42713;42.676;23.352;2023-04-25T05:31:41;14.77;;;9.10;;
56830;SDS011;42713;42.676;23.352;2023-04-25T05:34:06;13.73;;;8.57;;
56830;SDS011;42713;42.676;23.352;2023-04-25T05:36:32;14.40;;;8.57;;
56830;SDS011;42713;42.676;23.352;2023-04-25T05:38:57;17.10;;;7.93;;
56830;SDS011;42713;42.676;23.352;2023-04-25T05:41:23;17.10;;;8.10;;
56830;SDS011;42713;42.676;23.352;2023-04-25T05:43:48;12.50;;;7.78;;
56830;SDS011;42713;42.676;23.352;2023-04-25T05:46:14;12.15;;;7.80;;
56830;SDS011;42713;42.676;23.352;2023-04-25T05:48:42;12.68;;;8.32;;
56830;SDS011;42713;42.676;23.352;2023-04-25T05:51:08;12.40;;;7.25;;
56830;SDS011;42713;42.676;23.352;2023-04-25T05:53:33;13.82;;;7.53;;
56830;SDS011;42713;42.676;23.352;2023-04-25T05:55:59;11.68;;;6.15;;
56830;SDS011;42713;42.676;23.352;2023-04-25T05:58:25;10.05;;;6.13;;
56830;SDS011;42713;42.676;23.352;2023-04-25T06:00:51;12.93;;;7.30;;
56830;SDS011;42713;42.676;23.352;2023-04-25T06:03:16;12.38;;;6.68;;
56830;SDS011;42713;42.676;23.352;2023-04-25T06:05:42;10.75;;;6.50;;
56830;SDS011;42713;42.676;23.352;2023-04-25T06:08:08;11.07;;;5.13;;
56830;SDS011;42713;42.676;23.352;2023-04-25T06:10:33;12.07;;;5.20;;
56830;SDS011;42713;42.676;23.352;2023-04-25T06:12:59;10.73;;;4.95;;
56830;SDS011;42713;42.676;23.352;2023-04-25T06:15:25;11.80;;;5.57;;
56830;SDS011;42713;42.676;23.352;2023-04-25T06:17:50;12.15;;;5.35;;
56830;SDS011;42713;42.676;23.352;2023-04-25T06:20:16;10.02;;;5.38;;
56830;SDS011;42713;42.676;23.352;2023-04-25T06:22:42;11.70;;;5.45;;
56830;SDS011;42713;42.676;23.352;2023-04-25T06:25:07;10.88;;;5.68;;
56830;SDS011;42713;42.676;23.352;2023-04-25T06:27:33;12.25;;;5.13;;
56830;SDS011;42713;42.676;23.352;2023-04-25T06:29:59;10.10;;;5.43;;
56830;SDS011;42713;42.676;23.352;2023-04-25T06:32:24;12.88;;;5.55;;
56830;SDS011;42713;42.676;23.352;2023-04-25T06:34:52;13.23;;;5.20;;
56830;SDS011;42713;42.676;23.352;2023-04-25T06:37:18;11.15;;;4.70;;
56830;SDS011;42713;42.676;23.352;2023-04-25T06:39:44;9.38;;;4.65;;
56830;SDS011;42713;42.676;23.352;2023-04-25T06:42:09;10.25;;;4.90;;
56830;SDS011;42713;42.676;23.352;2023-04-25T06:44:35;12.40;;;4.93;;
56830;SDS011;42713;42.676;23.352;2023-04-25T06:47:00;8.70;;;4.53;;
56830;SDS011;42713;42.676;23.352;2023-04-25T06:49:26;9.23;;;5.28;;
56830;SDS011;42713;42.676;23.352;2023-04-25T06:51:51;8.40;;;4.20;;
56830;SDS011;42713;42.676;23.352;2023-04-25T06:54:17;9.13;;;4.82;;
56830;SDS011;42713;42.676;23.352;2023-04-25T06:56:42;10.05;;;4.95;;
56830;SDS011;42713;42.676;23.352;2023-04-25T06:59:08;10.40;;;4.13;;
56830;SDS011;42713;42.676;23.352;2023-04-25T07:01:34;9.80;;;5.75;;
56830;SDS011;42713;42.676;23.352;2023-04-25T07:04:00;18.42;;;5.20;;
56830;SDS011;42713;42.676;23.352;2023-04-25T07:06:26;11.32;;;4.68;;
56830;SDS011;42713;42.676;23.352;2023-04-25T07:08:52;10.30;;;4.50;;
56830;SDS011;42713;42.676;23.352;2023-04-25T07:11:18;10.63;;;5.03;;
56830;SDS011;42713;42.676;23.352;2023-04-25T07:13:43;13.02;;;5.30;;
56830;SDS011;42713;42.676;23.352;2023-04-25T07:16:09;11.38;;;5.32;;
56830;SDS011;42713;42.676;23.352;2023-04-25T07:18:34;10.07;;;5.45;;
56830;SDS011;42713;42.676;23.352;2023-04-25T07:21:00;11.27;;;5.18;;
56830;SDS011;42713;42.676;23.352;2023-04-25T07:23:25;9.23;;;5.05;;
56830;SDS011;42713;42.676;23.352;2023-04-25T07:25:51;10.13;;;5.32;;
56830;SDS011;42713;42.676;23.352;2023-04-25T07:28:16;10.68;;;4.60;;
56830;SDS011;42713;42.676;23.352;2023-04-25T07:30:43;11.20;;;5.13;;
56830;SDS011;42713;42.676;23.352;2023-04-25T07:33:08;10.50;;;4.85;;
56830;SDS011;42713;42.676;23.352;2023-04-25T07:35:34;11.32;;;4.80;;
56830;SDS011;42713;42.676;23.352;2023-04-25T07:38:00;9.48;;;4.82;;
56830;SDS011;42713;42.676;23.352;2023-04-25T07:40:25;14.05;;;5.47;;
56830;SDS011;42713;42.676;23.352;2023-04-25T07:42:51;15.40;;;5.38;;
56830;SDS011;42713;42.676;23.352;2023-04-25T07:45:16;10.60;;;5.32;;
56830;SDS011;42713;42.676;23.352;2023-04-25T07:47:42;13.88;;;5.90;;
56830;SDS011;42713;42.676;23.352;2023-04-25T07:50:08;15.88;;;5.60;;
56830;SDS011;42713;42.676;23.352;2023-04-25T07:52:34;12.85;;;5.30;;
56830;SDS011;42713;42.676;23.352;2023-04-25T07:54:59;11.05;;;5.10;;
56830;SDS011;42713;42.676;23.352;2023-04-25T07:57:25;7.40;;;3.83;;
56830;SDS011;42713;42.676;23.352;2023-04-25T07:59:50;11.13;;;5.07;;
56830;SDS011;42713;42.676;23.352;2023-04-25T08:02:16;10.75;;;4.88;;
56830;SDS011;42713;42.676;23.352;2023-04-25T08:04:41;12.13;;;5.53;;
56830;SDS011;42713;42.676;23.352;2023-04-25T08:07:07;11.15;;;5.10;;
56830;SDS011;42713;42.676;23.352;2023-04-25T08:09:32;10.50;;;5.03;;
56830;SDS011;42713;42.676;23.352;2023-04-25T08:12:02;10.05;;;4.97;;
56830;SDS011;42713;42.676;23.352;2023-04-25T08:14:28;10.68;;;4.70;;
56830;SDS011;42713;42.676;23.352;2023-04-25T08:16:56;7.10;;;3.72;;
56830;SDS011;42713;42.676;23.352;2023-04-25T08:19:21;8.40;;;4.10;;
56830;SDS011;42713;42.676;23.352;2023-04-25T08:21:47;8.07;;;3.88;;
56830;SDS011;42713;42.676;23.352;2023-04-25T08:24:12;9.63;;;3.28;;
56830;SDS011;42713;42.676;23.352;2023-04-25T08:26:38;8.82;;;3.75;;
56830;SDS011;42713;42.676;23.352;2023-04-25T08:29:04;9.13;;;3.85;;
56830;SDS011;42713;42.676;23.352;2023-04-25T08:31:30;11.40;;;4.10;;
56830;SDS011;42713;42.676;23.352;2023-04-25T08:33:56;8.65;;;3.50;;
56830;SDS011;42713;42.676;23.352;2023-04-25T08:36:21;8.27;;;3.30;;
56830;SDS011;42713;42.676;23.352;2023-04-25T08:38:47;10.73;;;3.90;;
56830;SDS011;42713;42.676;23.352;2023-04-25T08:41:13;10.40;;;3.25;;
56830;SDS011;42713;42.676;23.352;2023-04-25T08:43:39;7.63;;;3.17;;
56830;SDS011;42713;42.676;23.352;2023-04-25T08:46:08;6.25;;;3.15;;
56830;SDS011;42713;42.676;23.352;2023-04-25T08:48:35;8.90;;;3.17;;
56830;SDS011;42713;42.676;23.352;2023-04-25T08:51:01;10.18;;;3.83;;
56830;SDS011;42713;42.676;23.352;2023-04-25T08:53:32;13.27;;;6.53;;
56830;SDS011;42713;42.676;23.352;2023-04-25T08:55:59;12.32;;;6.60;;
56830;SDS011;42713;42.676;23.352;2023-04-25T08:58:27;14.88;;;6.78;;
56830;SDS011;42713;42.676;23.352;2023-04-25T09:00:53;14.30;;;6.85;;
56830;SDS011;42713;42.676;23.352;2023-04-25T09:03:19;14.35;;;6.90;;
56830;SDS011;42713;42.676;23.352;2023-04-25T09:05:44;14.23;;;7.00;;
56830;SDS011;42713;42.676;23.352;2023-04-25T09:08:10;12.00;;;7.78;;
56830;SDS011;42713;42.676;23.352;2023-04-25T09:10:36;13.90;;;6.88;;
56830;SDS011;42713;42.676;23.352;2023-04-25T09:15:27;14.18;;;4.88;;
56830;SDS011;42713;42.676;23.352;2023-04-25T09:17:56;7.70;;;3.95;;
56830;SDS011;42713;42.676;23.352;2023-04-25T09:20:22;13.77;;;4.10;;
56830;SDS011;42713;42.676;23.352;2023-04-25T09:22:47;9.57;;;4.38;;
56830;SDS011;42713;42.676;23.352;2023-04-25T09:25:13;8.65;;;4.00;;
56830;SDS011;42713;42.676;23.352;2023-04-25T09:27:51;10.57;;;3.70;;
56830;SDS011;42713;42.676;23.352;2023-04-25T09:30:18;9.13;;;4.07;;
56830;SDS011;42713;42.676;23.352;2023-04-25T09:32:54;8.73;;;3.83;;
56830;SDS011;42713;42.676;23.352;2023-04-25T09:35:25;7.50;;;3.50;;
56830;SDS011;42713;42.676;23.352;2023-04-25T09:37:51;9.60;;;3.42;;
56830;SDS011;42713;42.676;23.352;2023-04-25T09:40:17;7.65;;;3.17;;
56830;SDS011;42713;42.676;23.352;2023-04-25T09:42:44;10.40;;;4.05;;
56830;SDS011;42713;42.676;23.352;2023-04-25T09:45:12;8.65;;;3.88;;
56830;SDS011;42713;42.676;23.352;2023-04-25T09:47:40;10.40;;;5.10;;
56830;SDS011;42713;42.676;23.352;2023-04-25T09:50:13;10.32;;;4.28;;
56830;SDS011;42713;42.676;23.352;2023-04-25T09:52:40;8.40;;;3.67;;
56830;SDS011;42713;42.676;23.352;2023-04-25T09:55:06;6.80;;;2.97;;
56830;SDS011;42713;42.676;23.352;2023-04-25T09:57:32;8.25;;;3.50;;
56830;SDS011;42713;42.676;23.352;2023-04-25T09:59:58;10.32;;;3.80;;
56830;SDS011;42713;42.676;23.352;2023-04-25T10:02:26;8.45;;;3.30;;
56830;SDS011;42713;42.676;23.352;2023-04-25T10:20:07;9.57;;;3.92;;
56830;SDS011;42713;42.676;23.352;2023-04-25T10:22:36;7.38;;;3.88;;
56830;SDS011;42713;42.676;23.352;2023-04-25T10:25:04;10.68;;;3.20;;
56830;SDS011;42713;42.676;23.352;2023-04-25T10:27:31;7.70;;;1.60;;
56830;SDS011;42713;42.676;23.352;2023-04-25T10:30:01;5.03;;;1.60;;
56830;SDS011;42713;42.676;23.352;2023-04-25T10:32:31;5.72;;;1.65;;
56830;SDS011;42713;42.676;23.352;2023-04-25T10:35:13;5.40;;;1.60;;
56830;SDS011;42713;42.676;23.352;2023-04-25T10:38:11;3.45;;;1.30;;
56830;SDS011;42713;42.676;23.352;2023-04-25T10:40:39;5.68;;;1.30;;
56830;SDS011;42713;42.676;23.352;2023-04-25T10:45:56;3.97;;;1.30;;
56830;SDS011;42713;42.676;23.352;2023-04-25T10:48:24;4.93;;;1.30;;
56830;SDS011;42713;42.676;23.352;2023-04-25T10:51:06;3.88;;;1.25;;
56830;SDS011;42713;42.676;23.352;2023-04-25T10:53:36;3.33;;;1.10;;
56830;SDS011;42713;42.676;23.352;2023-04-25T10:56:11;5.20;;;1.42;;
56830;SDS011;42713;42.676;23.352;2023-04-25T10:58:46;5.57;;;1.30;;
56830;SDS011;42713;42.676;23.352;2023-04-25T11:01:13;5.50;;;1.27;;
56830;SDS011;42713;42.676;23.352;2023-04-25T11:03:40;4.30;;;1.33;;
56830;SDS011;42713;42.676;23.352;2023-04-25T11:06:31;3.67;;;1.20;;
56830;SDS011;42713;42.676;23.352;2023-04-25T11:09:19;4.30;;;1.30;;
56830;SDS011;42713;42.676;23.352;2023-04-25T11:11:58;2.97;;;0.93;;
56830;SDS011;42713;42.676;23.352;2023-04-25T11:14:25;5.38;;;1.30;;
56830;SDS011;42713;42.676;23.352;2023-04-25T11:16:54;4.53;;;1.27;;
56830;SDS011;42713;42.676;23.352;2023-04-25T11:19:21;2.75;;;1.10;;
56830;SDS011;42713;42.676;23.352;2023-04-25T11:21:47;2.33;;;0.95;;
56830;SDS011;42713;42.676;23.352;2023-04-25T11:24:13;4.75;;;1.00;;
56830;SDS011;42713;42.676;23.352;2023-04-25T11:26:43;7.22;;;1.70;;
56830;SDS011;42713;42.676;23.352;2023-04-25T11:29:12;4.75;;;1.75;;
56830;SDS011;42713;42.676;23.352;2023-04-25T11:31:38;5.47;;;1.70;;
56830;SDS011;42713;42.676;23.352;2023-04-25T11:34:03;7.30;;;2.30;;
56830;SDS011;42713;42.676;23.352;2023-04-25T11:36:29;7.57;;;1.60;;
56830;SDS011;42713;42.676;23.352;2023-04-25T11:38:55;4.60;;;1.60;;
56830;SDS011;42713;42.676;23.352;2023-04-25T11:41:21;4.88;;;1.80;;
56830;SDS011;42713;42.676;23.352;2023-04-25T11:43:47;7.85;;;1.90;;
56830;SDS011;42713;42.676;23.352;2023-04-25T11:46:13;5.97;;;1.65;;
56830;SDS011;42713;42.676;23.352;2023-04-25T11:48:40;3.30;;;1.30;;
56830;SDS011;42713;42.676;23.352;2023-04-25T11:51:07;2.70;;;0.88;;
56830;SDS011;42713;42.676;23.352;2023-04-25T11:53:33;3.45;;;0.90;;
56830;SDS011;42713;42.676;23.352;2023-04-25T11:55:58;2.67;;;1.05;;
56830;SDS011;42713;42.676;23.352;2023-04-25T11:58:25;4.15;;;0.90;;
56830;SDS011;42713;42.676;23.352;2023-04-25T12:00:51;3.83;;;1.02;;
56830;SDS011;42713;42.676;23.352;2023-04-25T12:03:19;3.08;;;1.15;;
56830;SDS011;42713;42.676;23.352;2023-04-25T12:05:46;2.33;;;1.00;;
56830;SDS011;42713;42.676;23.352;2023-04-25T12:08:12;4.15;;;0.90;;
56830;SDS011;42713;42.676;23.352;2023-04-25T12:10:39;5.15;;;1.15;;
56830;SDS011;42713;42.676;23.352;2023-04-25T12:13:22;3.55;;;0.90;;
56830;SDS011;42713;42.676;23.352;2023-04-25T12:15:49;2.78;;;0.90;;
56830;SDS011;42713;42.676;23.352;2023-04-25T12:18:18;1.88;;;0.80;;
56830;SDS011;42713;42.676;23.352;2023-04-25T12:20:44;2.50;;;0.88;;
56830;SDS011;42713;42.676;23.352;2023-04-25T12:23:09;3.20;;;0.80;;
56830;SDS011;42713;42.676;23.352;2023-04-25T12:25:43;2.67;;;0.93;;
56830;SDS011;42713;42.676;23.352;2023-04-25T12:28:14;2.42;;;1.00;;
56830;SDS011;42713;42.676;23.352;2023-04-25T12:33:31;5.47;;;1.08;;
56830;SDS011;42713;42.676;23.352;2023-04-25T12:36:01;2.22;;;0.70;;
56830;SDS011;42713;42.676;23.352;2023-04-25T12:38:35;8.18;;;1.40;;
56830;SDS011;42713;42.676;23.352;2023-04-25T12:41:02;5.35;;;1.10;;
56830;SDS011;42713;42.676;23.352;2023-04-25T12:43:27;8.48;;;1.60;;
56830;SDS011;42713;42.676;23.352;2023-04-25T12:45:53;6.25;;;1.60;;
56830;SDS011;42713;42.676;23.352;2023-04-25T12:48:20;8.38;;;1.60;;
56830;SDS011;42713;42.676;23.352;2023-04-25T12:50:46;6.05;;;1.52;;
56830;SDS011;42713;42.676;23.352;2023-04-25T12:53:14;4.15;;;1.17;;
56830;SDS011;42713;42.676;23.352;2023-04-25T12:55:44;4.38;;;1.27;;
56830;SDS011;42713;42.676;23.352;2023-04-25T12:58:16;6.90;;;1.35;;
56830;SDS011;42713;42.676;23.352;2023-04-25T13:00:43;4.55;;;1.13;;
56830;SDS011;42713;42.676;23.352;2023-04-25T13:03:09;5.35;;;1.40;;
56830;SDS011;42713;42.676;23.352;2023-04-25T13:05:38;4.95;;;1.30;;
56830;SDS011;42713;42.676;23.352;2023-04-25T13:08:04;5.65;;;1.25;;
56830;SDS011;42713;42.676;23.352;2023-04-25T13:10:30;5.72;;;1.25;;
56830;SDS011;42713;42.676;23.352;2023-04-25T13:12:55;6.53;;;1.50;;
56830;SDS011;42713;42.676;23.352;2023-04-25T13:15:21;6.20;;;1.63;;
56830;SDS011;42713;42.676;23.352;2023-04-25T13:17:47;6.32;;;1.48;;
56830;SDS011;42713;42.676;23.352;2023-04-25T13:20:12;3.95;;;1.30;;
56830;SDS011;42713;42.676;23.352;2023-04-25T13:22:40;8.15;;;1.58;;
56830;SDS011;42713;42.676;23.352;2023-04-25T13:25:06;7.88;;;1.58;;
56830;SDS011;42713;42.676;23.352;2023-04-25T13:27:33;5.72;;;1.70;;
56830;SDS011;42713;42.676;23.352;2023-04-25T13:30:00;4.55;;;1.50;;
56830;SDS011;42713;42.676;23.352;2023-04-25T13:32:29;6.38;;;1.77;;
56830;SDS011;42713;42.676;23.352;2023-04-25T13:34:55;5.20;;;1.52;;
56830;SDS011;42713;42.676;23.352;2023-04-25T13:37:20;6.00;;;2.05;;
56830;SDS011;42713;42.676;23.352;2023-04-25T13:39:49;9.32;;;1.73;;
56830;SDS011;42713;42.676;23.352;2023-04-25T13:42:15;5.72;;;1.92;;
56830;SDS011;42713;42.676;23.352;2023-04-25T13:44:41;5.35;;;1.88;;
56830;SDS011;42713;42.676;23.352;2023-04-25T13:47:06;8.30;;;2.20;;
56830;SDS011;42713;42.676;23.352;2023-04-25T13:49:31;5.88;;;1.80;;
56830;SDS011;42713;42.676;23.352;2023-04-25T13:51:57;6.32;;;2.05;;
56830;SDS011;42713;42.676;23.352;2023-04-25T13:54:22;7.70;;;1.85;;
56830;SDS011;42713;42.676;23.352;2023-04-25T13:56:48;5.72;;;2.03;;
56830;SDS011;42713;42.676;23.352;2023-04-25T13:59:14;5.20;;;1.70;;
56830;SDS011;42713;42.676;23.352;2023-04-25T14:01:39;4.45;;;1.73;;
56830;SDS011;42713;42.676;23.352;2023-04-25T14:04:05;5.40;;;1.83;;
56830;SDS011;42713;42.676;23.352;2023-04-25T14:06:31;6.78;;;1.70;;
56830;SDS011;42713;42.676;23.352;2023-04-25T14:08:57;4.85;;;1.50;;
56830;SDS011;42713;42.676;23.352;2023-04-25T14:11:22;6.28;;;1.42;;
56830;SDS011;42713;42.676;23.352;2023-04-25T14:13:48;7.55;;;1.20;;
56830;SDS011;42713;42.676;23.352;2023-04-25T14:16:14;7.30;;;1.55;;
56830;SDS011;42713;42.676;23.352;2023-04-25T14:18:40;4.35;;;1.30;;
56830;SDS011;42713;42.676;23.352;2023-04-25T14:21:06;21.83;;;1.80;;
56830;SDS011;42713;42.676;23.352;2023-04-25T14:23:32;4.93;;;1.30;;
56830;SDS011;42713;42.676;23.352;2023-04-25T14:25:57;3.17;;;1.33;;
56830;SDS011;42713;42.676;23.352;2023-04-25T14:28:23;4.20;;;1.40;;
56830;SDS011;42713;42.676;23.352;2023-04-25T14:30:48;5.85;;;1.40;;
56830;SDS011;42713;42.676;23.352;2023-04-25T14:33:13;6.57;;;1.48;;
56830;SDS011;42713;42.676;23.352;2023-04-25T14:35:39;7.18;;;1.20;;
56830;SDS011;42713;42.676;23.352;2023-04-25T14:38:06;3.15;;;1.13;;
56830;SDS011;42713;42.676;23.352;2023-04-25T14:40:32;3.08;;;1.23;;
56830;SDS011;42713;42.676;23.352;2023-04-25T14:42:58;3.70;;;1.40;;
56830;SDS011;42713;42.676;23.352;2023-04-25T14:45:24;4.50;;;1.60;;
56830;SDS011;42713;42.676;23.352;2023-04-25T14:47:50;3.38;;;1.35;;
56830;SDS011;42713;42.676;23.352;2023-04-25T14:50:15;5.00;;;1.70;;